createdAt,value
2018-05-16T00:00:20.295Z,990.07
2018-05-16T00:01:20.295Z,990.10
2018-05-16T00:02:20.285Z,990.12
2018-05-16T00:03:20.291Z,990.13
2018-05-16T00:04:20.275Z,990.13
2018-05-16T00:05:20.271Z,990.17
2018-05-16T00:06:20.267Z,990.14
2018-05-16T00:07:20.260Z,990.17
2018-05-16T00:08:20.255Z,990.15
2018-05-16T00:09:20.249Z,990.16
2018-05-16T00:10:20.244Z,990.21
2018-05-16T00:11:20.240Z,990.21
2018-05-16T00:12:20.235Z,990.26
2018-05-16T00:13:20.229Z,990.25
2018-05-16T00:14:20.223Z,990.21
2018-05-16T00:15:20.295Z,990.23
2018-05-16T00:16:20.217Z,990.20
2018-05-16T00:17:20.209Z,990.20
2018-05-16T00:18:20.203Z,990.20
2018-05-16T00:19:20.198Z,990.22
2018-05-16T00:20:20.193Z,990.21
2018-05-16T00:21:20.189Z,990.21
2018-05-16T00:22:20.183Z,990.21
2018-05-16T00:23:20.229Z,990.18
2018-05-16T00:24:20.174Z,990.17
2018-05-16T00:25:20.168Z,990.16
2018-05-16T00:26:20.163Z,990.17
2018-05-16T00:27:20.154Z,990.15
2018-05-16T00:28:20.154Z,990.21
2018-05-16T00:29:20.150Z,990.13
2018-05-16T00:30:20.145Z,990.17
2018-05-16T00:31:20.137Z,990.19
2018-05-16T00:32:20.131Z,990.19
2018-05-16T00:33:20.126Z,990.16
2018-05-16T00:34:20.121Z,990.19
2018-05-16T00:35:20.118Z,990.18
2018-05-16T00:36:20.184Z,990.23
2018-05-16T00:37:20.120Z,990.25
2018-05-16T00:38:20.101Z,990.26
2018-05-16T00:39:20.098Z,990.24
2018-05-16T00:40:20.092Z,990.25
2018-05-16T00:41:20.090Z,990.27
2018-05-16T00:42:20.081Z,990.27
2018-05-16T00:43:20.076Z,990.25
2018-05-16T00:44:20.071Z,990.25
2018-05-16T00:45:20.067Z,990.27
2018-05-16T00:46:20.060Z,990.28
2018-05-16T00:47:20.060Z,990.23
2018-05-16T00:48:20.051Z,990.25
2018-05-16T00:49:20.043Z,990.23
2018-05-16T00:50:20.040Z,990.23
2018-05-16T00:51:20.036Z,990.19
2018-05-16T00:52:20.031Z,990.18
2018-05-16T00:53:20.023Z,990.16
2018-05-16T00:54:20.019Z,990.14
2018-05-16T00:55:20.014Z,990.14
2018-05-16T00:56:20.011Z,990.12
2018-05-16T00:57:20.004Z,990.15
2018-05-16T00:58:19.999Z,990.12
2018-05-16T00:59:20.045Z,990.08
2018-05-16T01:00:20.043Z,990.07
2018-05-16T01:01:19.984Z,990.14
2018-05-16T01:02:19.977Z,990.15
2018-05-16T01:03:19.974Z,990.18
2018-05-16T01:04:19.971Z,990.15
2018-05-16T01:05:19.963Z,990.13
2018-05-16T01:06:19.958Z,990.19
2018-05-16T01:07:19.954Z,990.19
2018-05-16T01:08:19.950Z,990.15
2018-05-16T01:09:20.002Z,990.13
2018-05-16T01:10:19.936Z,990.11
2018-05-16T01:11:19.940Z,990.08
2018-05-16T01:12:19.929Z,990.06
2018-05-16T01:13:19.920Z,990.07
2018-05-16T01:14:19.919Z,989.99
2018-05-16T01:15:19.913Z,990.01
2018-05-16T01:16:19.908Z,990.03
2018-05-16T01:17:19.901Z,989.97
2018-05-16T01:18:19.896Z,989.96
2018-05-16T01:19:19.892Z,989.95
2018-05-16T01:20:19.889Z,989.89
2018-05-16T01:21:19.883Z,989.90
2018-05-16T01:22:19.875Z,989.91
2018-05-16T01:23:19.878Z,989.88
2018-05-16T01:24:19.866Z,989.89
2018-05-16T01:25:19.861Z,989.86
2018-05-16T01:26:19.856Z,989.83
2018-05-16T01:27:19.851Z,989.81
2018-05-16T01:28:19.933Z,989.80
2018-05-16T01:29:19.840Z,989.79
2018-05-16T01:30:19.842Z,989.74
2018-05-16T01:31:19.829Z,989.77
2018-05-16T01:32:19.826Z,989.77
2018-05-16T01:33:19.819Z,989.75
2018-05-16T01:34:19.816Z,989.79
2018-05-16T01:35:19.813Z,989.75
2018-05-16T01:36:19.805Z,989.74
2018-05-16T01:37:19.797Z,989.70
2018-05-16T01:38:19.794Z,989.65
2018-05-16T01:39:19.792Z,989.65
2018-05-16T01:40:19.783Z,989.60
2018-05-16T01:41:19.779Z,989.62
2018-05-16T01:42:19.906Z,989.63
2018-05-16T01:43:19.768Z,989.65
2018-05-16T01:44:19.763Z,989.74
2018-05-16T01:45:19.758Z,989.70
2018-05-16T01:46:19.754Z,989.72
2018-05-16T01:47:19.749Z,989.70
2018-05-16T01:48:19.743Z,989.66
2018-05-16T01:49:19.755Z,989.61
2018-05-16T01:50:19.732Z,989.58
2018-05-16T01:51:19.728Z,989.53
2018-05-16T01:52:19.723Z,989.52
2018-05-16T01:53:19.723Z,989.51
2018-05-16T01:54:19.713Z,989.52
2018-05-16T01:55:19.707Z,989.54
2018-05-16T01:56:19.701Z,989.50
2018-05-16T01:57:19.696Z,989.52
2018-05-16T01:58:19.690Z,989.47
2018-05-16T01:59:19.687Z,989.47
2018-05-16T02:00:19.680Z,989.45
2018-05-16T02:01:19.675Z,989.48
2018-05-16T02:02:19.670Z,989.46
2018-05-16T02:03:19.664Z,989.46
2018-05-16T02:04:19.660Z,989.47
2018-05-16T02:05:19.691Z,989.42
2018-05-16T02:06:19.649Z,989.45
2018-05-16T02:07:19.644Z,989.41
2018-05-16T02:08:19.639Z,989.44
2018-05-16T02:09:19.634Z,989.43
2018-05-16T02:10:19.629Z,989.43
2018-05-16T02:11:19.624Z,989.45
2018-05-16T02:12:19.617Z,989.45
2018-05-16T02:13:19.612Z,989.41
2018-05-16T02:14:19.609Z,989.46
2018-05-16T02:15:19.604Z,989.50
2018-05-16T02:16:19.599Z,989.49
2018-05-16T02:17:19.595Z,989.49
2018-05-16T02:18:19.587Z,989.43
2018-05-16T02:19:19.588Z,989.40
2018-05-16T02:20:19.577Z,989.42
2018-05-16T02:21:19.572Z,989.38
2018-05-16T02:22:19.567Z,989.40
2018-05-16T02:23:19.560Z,989.40
2018-05-16T02:24:19.556Z,989.34
2018-05-16T02:25:19.552Z,989.31
2018-05-16T02:26:19.547Z,989.29
2018-05-16T02:27:19.541Z,989.24
2018-05-16T02:28:19.538Z,989.21
2018-05-16T02:29:19.530Z,989.19
2018-05-16T02:30:19.527Z,989.18
2018-05-16T02:31:19.525Z,989.21
2018-05-16T02:32:19.516Z,989.16
2018-05-16T02:33:19.509Z,989.15
2018-05-16T02:34:19.505Z,989.17
2018-05-16T02:35:19.559Z,989.22
2018-05-16T02:36:19.498Z,989.17
2018-05-16T02:37:19.552Z,989.17
2018-05-16T02:38:19.484Z,989.19
2018-05-16T02:39:19.482Z,989.12
2018-05-16T02:40:19.478Z,989.15
2018-05-16T02:41:19.468Z,989.19
2018-05-16T02:42:19.467Z,989.22
2018-05-16T02:43:19.458Z,989.24
2018-05-16T02:44:19.457Z,989.23
2018-05-16T02:45:19.450Z,989.24
2018-05-16T02:46:19.443Z,989.24
2018-05-16T02:47:19.436Z,989.25
2018-05-16T02:48:19.434Z,989.23
2018-05-16T02:49:19.427Z,989.21
2018-05-16T02:50:19.421Z,989.23
2018-05-16T02:51:19.421Z,989.22
2018-05-16T02:52:19.414Z,989.25
2018-05-16T02:53:19.405Z,989.21
2018-05-16T02:54:19.416Z,989.17
2018-05-16T02:55:19.398Z,989.12
2018-05-16T02:56:19.391Z,989.15
2018-05-16T02:57:19.385Z,989.16
2018-05-16T02:58:19.379Z,989.16
2018-05-16T02:59:19.376Z,989.20
2018-05-16T03:00:19.373Z,989.19
2018-05-16T03:01:19.364Z,989.18
2018-05-16T03:02:19.360Z,989.14
2018-05-16T03:03:19.352Z,989.14
2018-05-16T03:04:19.349Z,989.18
2018-05-16T03:05:19.343Z,989.17
2018-05-16T03:06:19.339Z,989.16
2018-05-16T03:07:19.346Z,989.20
2018-05-16T03:08:19.342Z,989.17
2018-05-16T03:09:19.321Z,989.18
2018-05-16T03:10:19.322Z,989.21
2018-05-16T03:11:19.312Z,989.20
2018-05-16T03:12:19.307Z,989.16
2018-05-16T03:13:19.302Z,989.17
2018-05-16T03:14:19.302Z,989.15
2018-05-16T03:15:19.292Z,989.12
2018-05-16T03:16:19.288Z,989.15
2018-05-16T03:17:19.279Z,989.15
2018-05-16T03:18:19.277Z,989.18
2018-05-16T03:19:19.272Z,989.16
2018-05-16T03:20:19.265Z,989.20
2018-05-16T03:21:19.260Z,989.16
2018-05-16T03:22:19.255Z,989.18
2018-05-16T03:23:19.250Z,989.13
2018-05-16T03:24:19.245Z,989.12
2018-05-16T03:25:19.242Z,989.15
2018-05-16T03:26:19.235Z,989.09
2018-05-16T03:27:19.226Z,989.09
2018-05-16T03:28:19.224Z,989.09
2018-05-16T03:29:19.216Z,989.13
2018-05-16T03:30:19.213Z,989.10
2018-05-16T03:31:19.208Z,989.12
2018-05-16T03:32:19.204Z,989.09
2018-05-16T03:33:19.197Z,989.07
2018-05-16T03:34:19.193Z,989.09
2018-05-16T03:35:19.188Z,989.09
2018-05-16T03:36:19.183Z,989.08
2018-05-16T03:37:19.175Z,989.07
2018-05-16T03:38:19.178Z,989.11
2018-05-16T03:39:19.171Z,989.10
2018-05-16T03:40:19.161Z,989.10
2018-05-16T03:41:19.155Z,989.10
2018-05-16T03:42:19.149Z,989.10
2018-05-16T03:43:19.151Z,989.10
2018-05-16T03:44:19.140Z,989.08
2018-05-16T03:45:19.134Z,989.08
2018-05-16T03:46:19.128Z,989.08
2018-05-16T03:47:19.124Z,989.05
2018-05-16T03:48:19.118Z,989.07
2018-05-16T03:49:19.112Z,989.08
2018-05-16T03:50:19.109Z,989.08
2018-05-16T03:51:19.103Z,989.09
2018-05-16T03:52:19.098Z,989.07
2018-05-16T03:53:19.088Z,989.05
2018-05-16T03:54:19.086Z,989.03
2018-05-16T03:55:19.082Z,989.08
2018-05-16T03:56:19.081Z,989.07
2018-05-16T03:57:19.071Z,989.08
2018-05-16T03:58:19.068Z,989.06
2018-05-16T03:59:19.061Z,989.07
2018-05-16T04:00:19.056Z,989.02
2018-05-16T04:01:19.049Z,989.06
2018-05-16T04:02:19.078Z,989.07
2018-05-16T04:03:19.041Z,989.03
2018-05-16T04:04:19.034Z,988.99
2018-05-16T04:05:19.027Z,989.02
2018-05-16T04:06:19.022Z,989.08
2018-05-16T04:07:19.014Z,989.06
2018-05-16T04:08:19.010Z,989.04
2018-05-16T04:09:19.003Z,989.05
2018-05-16T04:10:18.996Z,989.06
2018-05-16T04:11:18.991Z,989.04
2018-05-16T04:12:18.987Z,989.04
2018-05-16T04:13:18.980Z,989.02
2018-05-16T04:14:18.972Z,988.97
2018-05-16T04:15:18.965Z,988.97
2018-05-16T04:16:18.960Z,988.98
2018-05-16T04:17:18.954Z,988.98
2018-05-16T04:18:18.949Z,988.98
2018-05-16T04:19:18.941Z,988.98
2018-05-16T04:20:18.934Z,988.98
2018-05-16T04:21:18.929Z,988.97
2018-05-16T04:22:18.922Z,988.95
2018-05-16T04:23:18.917Z,988.95
2018-05-16T04:24:18.910Z,988.96
2018-05-16T04:25:18.902Z,988.98
2018-05-16T04:26:18.897Z,988.96
2018-05-16T04:27:18.890Z,988.98
2018-05-16T04:28:18.885Z,988.96
2018-05-16T04:29:18.878Z,988.93
2018-05-16T04:30:18.871Z,988.92
2018-05-16T04:31:18.865Z,988.97
2018-05-16T04:32:18.861Z,988.94
2018-05-16T04:33:18.853Z,988.99
2018-05-16T04:34:18.846Z,988.94
2018-05-16T04:35:18.839Z,988.93
2018-05-16T04:36:18.833Z,988.95
2018-05-16T04:37:18.826Z,988.93
2018-05-16T04:38:18.818Z,988.92
2018-05-16T04:39:18.812Z,988.94
2018-05-16T04:40:18.805Z,988.98
2018-05-16T04:41:18.798Z,988.95
2018-05-16T04:42:18.790Z,988.95
2018-05-16T04:43:18.784Z,988.91
2018-05-16T04:44:18.779Z,988.92
2018-05-16T04:45:18.772Z,988.91
2018-05-16T04:46:18.765Z,988.90
2018-05-16T04:47:18.755Z,988.92
2018-05-16T04:48:18.752Z,988.93
2018-05-16T04:49:18.747Z,988.93
2018-05-16T04:50:18.738Z,988.91
2018-05-16T04:51:18.732Z,988.90
2018-05-16T04:52:18.728Z,988.91
2018-05-16T04:53:18.717Z,988.93
2018-05-16T04:54:18.711Z,988.90
2018-05-16T04:55:18.707Z,988.94
2018-05-16T04:56:18.699Z,988.95
2018-05-16T04:57:18.692Z,988.97
2018-05-16T04:58:18.686Z,988.98
2018-05-16T04:59:18.679Z,988.98
2018-05-16T05:00:18.670Z,988.98
2018-05-16T05:01:18.665Z,988.94
2018-05-16T05:02:18.657Z,988.96
2018-05-16T05:03:18.651Z,988.96
2018-05-16T05:04:18.645Z,988.99
2018-05-16T05:05:18.637Z,989.04
2018-05-16T05:06:18.631Z,989.05
2018-05-16T05:07:18.625Z,989.05
2018-05-16T05:08:18.621Z,989.00
2018-05-16T05:09:18.619Z,989.01
2018-05-16T05:10:18.607Z,989.01
2018-05-16T05:11:18.597Z,988.99
2018-05-16T05:12:18.591Z,988.98
2018-05-16T05:13:18.584Z,989.02
2018-05-16T05:14:18.577Z,988.96
2018-05-16T05:15:18.569Z,989.05
2018-05-16T05:16:18.563Z,989.02
2018-05-16T05:17:18.557Z,989.05
2018-05-16T05:18:18.675Z,989.05
2018-05-16T05:19:18.542Z,989.06
2018-05-16T05:20:18.536Z,989.06
2018-05-16T05:21:18.527Z,989.03
2018-05-16T05:22:18.526Z,989.03
2018-05-16T05:23:18.516Z,989.06
2018-05-16T05:24:18.511Z,989.03
2018-05-16T05:25:18.502Z,989.07
2018-05-16T05:26:18.500Z,989.06
2018-05-16T05:27:18.489Z,989.15
2018-05-16T05:28:18.481Z,989.15
2018-05-16T05:29:18.476Z,989.11
2018-05-16T05:30:18.545Z,989.19
2018-05-16T05:31:18.461Z,989.19
2018-05-16T05:32:18.455Z,989.19
2018-05-16T05:33:18.447Z,989.24
2018-05-16T05:34:18.440Z,989.22
2018-05-16T05:35:18.434Z,989.25
2018-05-16T05:36:18.429Z,989.21
2018-05-16T05:37:18.419Z,989.21
2018-05-16T05:38:18.412Z,989.24
2018-05-16T05:39:18.413Z,989.20
2018-05-16T05:40:18.405Z,989.15
2018-05-16T05:41:18.391Z,989.21
2018-05-16T05:42:18.393Z,989.20
2018-05-16T05:43:18.398Z,989.23
2018-05-16T05:44:18.371Z,989.22
2018-05-16T05:45:18.365Z,989.22
2018-05-16T05:46:18.361Z,989.24
2018-05-16T05:47:18.353Z,989.22
2018-05-16T05:48:18.353Z,989.20
2018-05-16T05:49:18.490Z,989.24
2018-05-16T05:50:18.330Z,989.24
2018-05-16T05:51:18.325Z,989.25
2018-05-16T05:52:18.320Z,989.23
2018-05-16T05:53:18.315Z,989.19
2018-05-16T05:54:18.308Z,989.21
2018-05-16T05:55:18.297Z,989.25
2018-05-16T05:56:18.291Z,989.18
2018-05-16T05:57:18.282Z,989.25
2018-05-16T05:58:18.277Z,989.28
2018-05-16T05:59:18.268Z,989.25
2018-05-16T06:00:18.265Z,989.27
2018-05-16T06:01:18.255Z,989.28
2018-05-16T06:02:18.249Z,989.30
2018-05-16T06:03:18.242Z,989.29
2018-05-16T06:04:18.240Z,989.30
2018-05-16T06:05:18.232Z,989.33
2018-05-16T06:06:18.221Z,989.28
2018-05-16T06:07:18.212Z,989.31
2018-05-16T06:08:18.212Z,989.35
2018-05-16T06:09:18.201Z,989.43
2018-05-16T06:10:18.195Z,989.40
2018-05-16T06:11:18.187Z,989.41
2018-05-16T06:12:18.182Z,989.42
2018-05-16T06:13:18.172Z,989.43
2018-05-16T06:14:18.169Z,989.46
2018-05-16T06:15:18.160Z,989.41
2018-05-16T06:16:18.155Z,989.47
2018-05-16T06:17:18.151Z,989.44
2018-05-16T06:18:18.139Z,989.44
2018-05-16T06:19:18.136Z,989.47
2018-05-16T06:20:18.127Z,989.46
2018-05-16T06:21:18.117Z,989.45
2018-05-16T06:22:18.120Z,989.45
2018-05-16T06:23:18.110Z,989.48
2018-05-16T06:24:18.101Z,989.51
2018-05-16T06:25:18.092Z,989.55
2018-05-16T06:26:18.084Z,989.49
2018-05-16T06:27:18.118Z,989.50
2018-05-16T06:28:18.076Z,989.54
2018-05-16T06:29:18.062Z,989.50
2018-05-16T06:30:18.056Z,989.51
2018-05-16T06:31:18.047Z,989.60
2018-05-16T06:32:18.042Z,989.53
2018-05-16T06:33:18.036Z,989.53
2018-05-16T06:34:18.030Z,989.57
2018-05-16T06:35:18.025Z,989.62
2018-05-16T06:36:18.015Z,989.55
2018-05-16T06:37:18.008Z,989.63
2018-05-16T06:38:18.001Z,989.59
2018-05-16T06:39:17.996Z,989.63
2018-05-16T06:40:17.988Z,989.62
2018-05-16T06:41:17.983Z,989.63
2018-05-16T06:42:17.975Z,989.65
2018-05-16T06:43:17.966Z,989.64
2018-05-16T06:44:17.963Z,989.68
2018-05-16T06:45:17.954Z,989.65
2018-05-16T06:46:17.946Z,989.68
2018-05-16T06:47:17.938Z,989.63
2018-05-16T06:48:17.933Z,989.65
2018-05-16T06:49:17.924Z,989.70
2018-05-16T06:50:17.922Z,989.68
2018-05-16T06:51:17.910Z,989.70
2018-05-16T06:52:17.905Z,989.67
2018-05-16T06:53:17.897Z,989.65
2018-05-16T06:54:17.890Z,989.65
2018-05-16T06:55:17.884Z,989.67
2018-05-16T06:56:17.876Z,989.65
2018-05-16T06:57:17.869Z,989.63
2018-05-16T06:58:17.862Z,989.55
2018-05-16T06:59:17.860Z,989.60
2018-05-16T07:00:17.849Z,989.53
2018-05-16T07:01:17.845Z,989.57
2018-05-16T07:02:17.836Z,989.55
2018-05-16T07:03:17.830Z,989.55
2018-05-16T07:04:17.823Z,989.60
2018-05-16T07:05:17.816Z,989.63
2018-05-16T07:06:17.811Z,989.70
2018-05-16T07:07:17.800Z,989.67
2018-05-16T07:08:17.796Z,989.71
2018-05-16T07:09:17.786Z,989.68
2018-05-16T07:10:17.782Z,989.68
2018-05-16T07:11:17.775Z,989.72
2018-05-16T07:12:17.768Z,989.76
2018-05-16T07:13:17.760Z,989.79
2018-05-16T07:14:17.754Z,989.81
2018-05-16T07:15:17.746Z,989.86
2018-05-16T07:16:17.744Z,989.91
2018-05-16T07:17:17.732Z,989.90
2018-05-16T07:18:17.726Z,989.93
2018-05-16T07:19:17.718Z,989.96
2018-05-16T07:20:17.711Z,989.97
2018-05-16T07:21:17.705Z,990.01
2018-05-16T07:22:17.699Z,990.07
2018-05-16T07:23:17.691Z,990.00
2018-05-16T07:24:17.685Z,989.96
2018-05-16T07:25:17.682Z,989.94
2018-05-16T07:26:17.671Z,989.91
2018-05-16T07:27:17.664Z,989.91
2018-05-16T07:28:17.665Z,989.93
2018-05-16T07:29:17.650Z,989.89
2018-05-16T07:30:17.643Z,989.91
2018-05-16T07:31:17.638Z,989.91
2018-05-16T07:32:17.631Z,989.94
2018-05-16T07:33:17.627Z,989.90
2018-05-16T07:34:17.617Z,989.90
2018-05-16T07:35:17.612Z,989.91
2018-05-16T07:36:17.630Z,989.93
2018-05-16T07:37:17.596Z,989.94
2018-05-16T07:38:17.590Z,989.89
2018-05-16T07:39:17.583Z,989.91
2018-05-16T07:40:17.574Z,989.90
2018-05-16T07:41:17.571Z,989.90
2018-05-16T07:42:17.562Z,989.85
2018-05-16T07:43:17.555Z,989.86
2018-05-16T07:44:17.549Z,989.87
2018-05-16T07:45:17.542Z,989.86
2018-05-16T07:46:17.535Z,989.88
2018-05-16T07:47:17.529Z,989.92
2018-05-16T07:48:17.522Z,989.96
2018-05-16T07:49:17.514Z,989.97
2018-05-16T07:50:17.509Z,989.93
2018-05-16T07:51:17.512Z,989.93
2018-05-16T07:52:17.499Z,989.99
2018-05-16T07:53:17.487Z,990.00
2018-05-16T07:54:17.483Z,989.96
2018-05-16T07:55:17.480Z,989.97
2018-05-16T07:56:17.470Z,989.94
2018-05-16T07:57:17.460Z,989.97
2018-05-16T07:58:17.455Z,989.98
2018-05-16T07:59:17.448Z,989.99
2018-05-16T08:00:17.440Z,990.01
2018-05-16T08:01:17.433Z,990.07
2018-05-16T08:02:17.427Z,990.04
2018-05-16T08:03:17.511Z,990.01
2018-05-16T08:04:17.415Z,990.03
2018-05-16T08:05:17.408Z,990.03
2018-05-16T08:06:17.399Z,990.02
2018-05-16T08:07:17.395Z,990.04
2018-05-16T08:08:17.386Z,990.08
2018-05-16T08:09:17.381Z,990.09
2018-05-16T08:10:17.374Z,990.11
2018-05-16T08:11:17.369Z,990.11
2018-05-16T08:12:17.375Z,990.10
2018-05-16T08:13:17.351Z,990.08
2018-05-16T08:14:17.348Z,990.13
2018-05-16T08:15:17.337Z,990.17
2018-05-16T08:16:17.334Z,990.15
2018-05-16T08:17:17.325Z,990.16
2018-05-16T08:18:17.319Z,990.18
2018-05-16T08:19:17.312Z,990.16
2018-05-16T08:20:17.307Z,990.16
2018-05-16T08:21:17.298Z,990.14
2018-05-16T08:22:17.291Z,990.14
2018-05-16T08:23:17.287Z,990.10
2018-05-16T08:24:17.278Z,990.11
2018-05-16T08:25:17.272Z,990.12
2018-05-16T08:26:17.267Z,990.14
2018-05-16T08:27:17.257Z,990.13
2018-05-16T08:28:17.253Z,990.13
2018-05-16T08:29:17.246Z,990.14
2018-05-16T08:30:17.236Z,990.21
2018-05-16T08:31:17.300Z,990.12
2018-05-16T08:32:17.225Z,990.16
2018-05-16T08:33:17.218Z,990.22
2018-05-16T08:34:17.210Z,990.20
2018-05-16T08:35:17.202Z,990.19
2018-05-16T08:36:17.197Z,990.21
2018-05-16T08:37:17.189Z,990.20
2018-05-16T08:38:17.200Z,990.17
2018-05-16T08:39:17.176Z,990.19
2018-05-16T08:40:17.172Z,990.24
2018-05-16T08:41:17.161Z,990.22
2018-05-16T08:42:17.158Z,990.24
2018-05-16T08:43:17.148Z,990.25
2018-05-16T08:44:17.141Z,990.22
2018-05-16T08:45:17.136Z,990.23
2018-05-16T08:46:17.129Z,990.23
2018-05-16T08:47:17.121Z,990.23
2018-05-16T08:48:17.115Z,990.24
2018-05-16T08:49:17.107Z,990.32
2018-05-16T08:50:17.106Z,990.28
2018-05-16T08:51:17.094Z,990.28
2018-05-16T08:52:17.088Z,990.28
2018-05-16T08:53:17.078Z,990.32
2018-05-16T08:54:17.075Z,990.36
2018-05-16T08:55:17.065Z,990.36
2018-05-16T08:56:17.060Z,990.38
2018-05-16T08:57:17.053Z,990.41
2018-05-16T08:58:17.049Z,990.46
2018-05-16T08:59:17.041Z,990.39
2018-05-16T09:00:17.036Z,990.44
2018-05-16T09:01:17.083Z,990.42
2018-05-16T09:02:17.157Z,990.44
2018-05-16T09:03:17.012Z,990.46
2018-05-16T09:04:17.004Z,990.42
2018-05-16T09:05:16.997Z,990.45
2018-05-16T09:06:16.992Z,990.49
2018-05-16T09:07:16.983Z,990.47
2018-05-16T09:08:16.978Z,990.48
2018-05-16T09:09:16.970Z,990.48
2018-05-16T09:10:16.964Z,990.48
2018-05-16T09:11:16.961Z,990.47
2018-05-16T09:12:16.950Z,990.48
2018-05-16T09:13:16.941Z,990.46
2018-05-16T09:14:16.937Z,990.50
2018-05-16T09:15:16.931Z,990.53
2018-05-16T09:16:16.923Z,990.49
2018-05-16T09:17:17.014Z,990.53
2018-05-16T09:18:16.911Z,990.54
2018-05-16T09:19:16.906Z,990.53
2018-05-16T09:20:16.900Z,990.57
2018-05-16T09:21:16.892Z,990.53
2018-05-16T09:22:16.878Z,990.57
2018-05-16T09:23:16.872Z,990.58
2018-05-16T09:24:16.867Z,990.61
2018-05-16T09:25:16.969Z,990.62
2018-05-16T09:26:16.854Z,990.58
2018-05-16T09:27:16.847Z,990.58
2018-05-16T09:28:16.842Z,990.59
2018-05-16T09:29:16.833Z,990.61
2018-05-16T09:30:16.825Z,990.63
2018-05-16T09:31:16.819Z,990.68
2018-05-16T09:32:16.813Z,990.68
2018-05-16T09:33:16.806Z,990.69
2018-05-16T09:34:16.799Z,990.73
2018-05-16T09:35:16.793Z,990.71
2018-05-16T09:36:16.786Z,990.73
2018-05-16T09:37:16.780Z,990.72
2018-05-16T09:38:16.775Z,990.66
2018-05-16T09:39:16.766Z,990.68
2018-05-16T09:40:16.809Z,990.70
2018-05-16T09:41:16.752Z,990.68
2018-05-16T09:42:16.745Z,990.69
2018-05-16T09:43:16.739Z,990.70
2018-05-16T09:44:16.731Z,990.73
2018-05-16T09:45:16.733Z,990.69
2018-05-16T09:46:16.719Z,990.67
2018-05-16T09:47:16.711Z,990.72
2018-05-16T09:48:16.705Z,990.75
2018-05-16T09:49:16.699Z,990.76
2018-05-16T09:50:16.689Z,990.78
2018-05-16T09:51:16.685Z,990.77
2018-05-16T09:52:16.678Z,990.82
2018-05-16T09:53:16.671Z,990.78
2018-05-16T09:54:16.664Z,990.81
2018-05-16T09:55:16.672Z,990.82
2018-05-16T09:56:16.650Z,990.79
2018-05-16T09:57:16.643Z,990.86
2018-05-16T09:58:16.646Z,990.82
2018-05-16T09:59:16.630Z,990.84
2018-05-16T10:00:16.625Z,990.81
2018-05-16T10:01:16.616Z,990.77
2018-05-16T10:02:16.606Z,990.88
2018-05-16T10:03:16.603Z,990.84
2018-05-16T10:04:16.594Z,990.82
2018-05-16T10:05:16.588Z,990.82
2018-05-16T10:06:16.578Z,990.84
2018-05-16T10:07:16.575Z,990.92
2018-05-16T10:08:16.571Z,990.84
2018-05-16T10:09:16.560Z,990.86
2018-05-16T10:10:16.554Z,990.89
2018-05-16T10:11:16.544Z,990.90
2018-05-16T10:12:16.540Z,990.85
2018-05-16T10:13:16.534Z,990.91
2018-05-16T10:14:16.526Z,990.94
2018-05-16T10:15:16.524Z,990.94
2018-05-16T10:16:16.518Z,990.92
2018-05-16T10:17:16.505Z,990.93
2018-05-16T10:18:16.499Z,990.95
2018-05-16T10:19:16.499Z,990.93
2018-05-16T10:20:16.594Z,990.96
2018-05-16T10:21:16.483Z,990.92
2018-05-16T10:22:16.644Z,990.88
2018-05-16T10:23:16.468Z,990.90
2018-05-16T10:24:16.457Z,990.96
2018-05-16T10:25:16.452Z,990.92
2018-05-16T10:26:16.446Z,990.91
2018-05-16T10:27:16.438Z,990.92
2018-05-16T10:28:16.441Z,990.92
2018-05-16T10:29:16.426Z,990.96
2018-05-16T10:30:16.425Z,990.94
2018-05-16T10:31:16.415Z,990.93
2018-05-16T10:32:16.409Z,990.92
2018-05-16T10:33:16.521Z,990.95
2018-05-16T10:34:16.394Z,990.91
2018-05-16T10:35:16.387Z,990.92
2018-05-16T10:36:16.381Z,990.92
2018-05-16T10:37:16.371Z,991.00
2018-05-16T10:38:16.365Z,990.95
2018-05-16T10:39:16.359Z,990.97
2018-05-16T10:40:16.352Z,990.90
2018-05-16T10:41:16.345Z,990.92
2018-05-16T10:42:16.340Z,990.90
2018-05-16T10:43:16.333Z,990.85
2018-05-16T10:44:16.327Z,990.87
2018-05-16T10:45:16.321Z,990.92
2018-05-16T10:46:16.320Z,990.84
2018-05-16T10:47:16.307Z,990.86
2018-05-16T10:48:16.302Z,990.82
2018-05-16T10:49:16.294Z,990.82
2018-05-16T10:50:16.291Z,990.81
2018-05-16T10:51:16.283Z,990.79
2018-05-16T10:52:16.317Z,990.79
2018-05-16T10:53:16.269Z,990.72
2018-05-16T10:54:16.263Z,990.76
2018-05-16T10:55:16.258Z,990.74
2018-05-16T10:56:16.252Z,990.72
2018-05-16T10:57:16.340Z,990.73
2018-05-16T10:58:16.239Z,990.70
2018-05-16T10:59:16.234Z,990.74
2018-05-16T11:00:16.225Z,990.71
2018-05-16T11:01:16.219Z,990.71
2018-05-16T11:02:16.214Z,990.72
2018-05-16T11:03:16.221Z,990.71
2018-05-16T11:04:16.205Z,990.70
2018-05-16T11:05:16.196Z,990.73
2018-05-16T11:06:16.189Z,990.70
2018-05-16T11:07:16.186Z,990.71
2018-05-16T11:08:16.177Z,990.68
2018-05-16T11:09:16.171Z,990.67
2018-05-16T11:10:16.164Z,990.73
2018-05-16T11:11:16.157Z,990.73
2018-05-16T11:12:16.151Z,990.76
2018-05-16T11:13:16.147Z,990.72
2018-05-16T11:14:16.139Z,990.71
2018-05-16T11:15:16.134Z,990.77
2018-05-16T11:16:16.128Z,990.69
2018-05-16T11:17:16.124Z,990.68
2018-05-16T11:18:16.117Z,990.68
2018-05-16T11:19:16.109Z,990.67
2018-05-16T11:20:16.103Z,990.62
2018-05-16T11:21:16.099Z,990.67
2018-05-16T11:22:16.092Z,990.69
2018-05-16T11:23:16.086Z,990.71
2018-05-16T11:24:16.084Z,990.64
2018-05-16T11:25:16.075Z,990.64
2018-05-16T11:26:16.068Z,990.64
2018-05-16T11:27:16.061Z,990.66
2018-05-16T11:28:16.059Z,990.67
2018-05-16T11:29:16.049Z,990.67
2018-05-16T11:30:16.043Z,990.66
2018-05-16T11:31:16.036Z,990.64
2018-05-16T11:32:16.032Z,990.61
2018-05-16T11:33:16.077Z,990.62
2018-05-16T11:34:16.021Z,990.64
2018-05-16T11:35:16.014Z,990.62
2018-05-16T11:36:16.006Z,990.64
2018-05-16T11:37:16.000Z,990.62
2018-05-16T11:38:15.995Z,990.59
2018-05-16T11:39:15.991Z,990.61
2018-05-16T11:40:15.985Z,990.60
2018-05-16T11:41:15.978Z,990.63
2018-05-16T11:42:15.972Z,990.62
2018-05-16T11:43:15.965Z,990.61
2018-05-16T11:44:15.960Z,990.60
2018-05-16T11:45:15.952Z,990.62
2018-05-16T11:46:15.948Z,990.61
2018-05-16T11:47:15.941Z,990.64
2018-05-16T11:48:15.937Z,990.67
2018-05-16T11:49:15.928Z,990.66
2018-05-16T11:50:15.923Z,990.63
2018-05-16T11:51:15.916Z,990.62
2018-05-16T11:52:15.912Z,990.59
2018-05-16T11:53:15.905Z,990.56
2018-05-16T11:54:15.897Z,990.53
2018-05-16T11:55:15.892Z,990.56
2018-05-16T11:56:15.894Z,990.59
2018-05-16T11:57:15.881Z,990.56
2018-05-16T11:58:15.872Z,990.56
2018-05-16T11:59:15.870Z,990.58
2018-05-16T12:00:15.861Z,990.61
2018-05-16T12:01:15.856Z,990.62
2018-05-16T12:02:15.854Z,990.58
2018-05-16T12:03:15.844Z,990.59
2018-05-16T12:04:15.836Z,990.58
2018-05-16T12:05:15.830Z,990.56
2018-05-16T12:06:15.825Z,990.54
2018-05-16T12:07:15.819Z,990.56
2018-05-16T12:08:15.830Z,990.54
2018-05-16T12:09:15.897Z,990.51
2018-05-16T12:10:15.805Z,990.50
2018-05-16T12:11:15.796Z,990.49
2018-05-16T12:12:15.791Z,990.48
2018-05-16T12:13:15.781Z,990.51
2018-05-16T12:14:15.775Z,990.48
2018-05-16T12:15:15.773Z,990.48
2018-05-16T12:16:15.771Z,990.50
2018-05-16T12:17:15.763Z,990.48
2018-05-16T12:18:15.760Z,990.47
2018-05-16T12:19:15.744Z,990.43
2018-05-16T12:20:15.739Z,990.44
2018-05-16T12:21:15.875Z,990.46
2018-05-16T12:22:15.725Z,990.43
2018-05-16T12:23:15.725Z,990.43
2018-05-16T12:24:15.713Z,990.47
2018-05-16T12:25:15.707Z,990.45
2018-05-16T12:26:15.732Z,990.43
2018-05-16T12:27:15.707Z,990.43
2018-05-16T12:28:15.689Z,990.42